Saturday, July 21, 2018, 10:53 PM EDT
Back to Local

KLWM, Lawrence Municipal Airport

Location: North Andover, MA, United States Lat: 42.717
Local Time: 10:53 PM EDT ( 2:53 GMT) Lon: -71.133
Time Zone: US/Eastern Elev: 147 ft

Show me the last for .
Show Decoded

2018-07-21 22:15 METAR KLWM 220215Z AUTO 07006KT 10SM SCT021 BKN055 20/15 A3016 RMK AO2 T02000150
                 =
2018-07-21 21:54 METAR KLWM 220154Z 06005KT 10SM BKN021 20/15 A3016 RMK AO2 SLP213 T02000150 =
2018-07-21 20:54 METAR KLWM 220054Z 10004KT 10SM BKN021 21/15 A3017 RMK AO2 SLP213 T02110150 =
2018-07-21 19:54 METAR KLWM 212354Z VRB05KT 10SM SCT028 22/14 A3016 RMK AO2 SLPNO T02170144 10267
                 20217 51009 =
2018-07-21 19:11 METAR KLWM 212311Z 11008KT 10SM BKN027 22/14 A3016 RMK AO2 T02220139 =
2018-07-21 18:54 METAR KLWM 212254Z VRB05KT 10SM SCT027 23/14 A3016 RMK AO2 SLP211 T02280144 =
2018-07-21 17:54 METAR KLWM 212154Z 08009KT 10SM SCT027 24/15 A3014 RMK AO2 SLP207 T02390150 =
2018-07-21 16:54 METAR KLWM 212054Z 09009KT 10SM FEW031 25/15 A3013 RMK AO2 SLP203 T02500150
                 58012 =
2018-07-21 15:54 METAR KLWM 211954Z 09007KT 10SM SCT033 26/15 A3015 RMK AO2 SLP208 T02610150 =
2018-07-21 14:54 METAR KLWM 211854Z 08009KT 10SM BKN044 27/15 A3016 RMK AO2 SLP212 T02670150 =
2018-07-21 13:54 METAR KLWM 211754Z 11007KT 10SM SCT041 26/14 A3017 RMK AO2 SLP214 T02610144
                 58007 =
2018-07-21 12:54 METAR KLWM 211654Z VRB06KT 10SM FEW041 26/13 A3018 RMK AO2 SLP218 T02610128 =
2018-07-21 11:54 METAR KLWM 211554Z VRB04KT 10SM CLR 26/12 A3019 RMK AO2 SLP221 T02610117 $ =
2018-07-21 10:54 METAR KLWM 211454Z 10004KT 10SM FEW041 25/12 A3019 RMK AO2 SLP221 T02500122
                 56002 $ =
2018-07-21 09:54 METAR KLWM 211354Z VRB04KT 10SM CLR 24/13 A3019 RMK AO2 SLP222 T02440128 $ =
2018-07-21 08:54 METAR KLWM 211254Z 00000KT 10SM CLR 23/ A3019 RMK AO2 SLP223 T0228 $ =
2018-07-21 07:54 METAR KLWM 211154Z 00000KT 10SM CLR A3019 RMK AO2 SLPNO 10200 20150 53004 $ =
2018-07-21 06:54 METAR KLWM 211054Z 00000KT 10SM CLR 18/15 A3019 RMK AO2 SLP221 T01830150 =
2018-07-21 05:54 METAR KLWM 210954Z AUTO 00000KT 10SM CLR 16/13 A3018 RMK AO2 SLP221 T01560128 =
2018-07-21 04:54 METAR KLWM 210854Z AUTO 00000KT 10SM CLR 17/14 A3018 RMK AO2 SLP219 T01720139
                 53003 =
2018-07-21 04:04 METAR KLWM 210804Z AUTO 14003KT 10SM SCT019 19/14 A3018 RMK AO2 T01890139 =
2018-07-21 03:54 METAR KLWM 210754Z AUTO 00000KT 10SM BKN019 18/14 A3018 RMK AO2 SLP217 T01830144
                 =
2018-07-21 02:54 METAR KLWM 210654Z AUTO 00000KT 10SM CLR 19/14 A3017 RMK AO2 SLP215 T01890144 =
2018-07-21 01:54 METAR KLWM 210554Z AUTO 00000KT 10SM CLR 18/14 A3017 RMK AO2 SLP216 T01780139
                 10239 20172 57003 =
2018-07-21 00:54 METAR KLWM 210454Z AUTO 15003KT 10SM CLR 18/14 A3018 RMK AO2 SLP217 T01830144
                 403110156 =
2018-07-20 23:54 METAR KLWM 210354Z AUTO 00000KT 10SM CLR 19/14 A3018 RMK AO2 SLP218 T01890144 =
2018-07-20 22:54 METAR KLWM 210254Z AUTO 00000KT 10SM CLR 20/14 A3018 RMK AO2 SLP219 T02000144
                 51004 =

Support USWX by starting your Amazon purchase here.